sensor_id;sensor_type;location;lat;lon;timestamp;temperature;humidity
39601;DHT22;25297;44.758;11.310;2023-02-01T00:01:51;8.50;78.10
39601;DHT22;25297;44.758;11.310;2023-02-01T00:04:17;8.50;78.10
39601;DHT22;25297;44.758;11.310;2023-02-01T00:06:42;8.50;78.10
39601;DHT22;25297;44.758;11.310;2023-02-01T00:09:08;8.40;78.10
39601;DHT22;25297;44.758;11.310;2023-02-01T00:11:33;8.40;78.10
39601;DHT22;25297;44.758;11.310;2023-02-01T00:13:59;8.40;77.90
39601;DHT22;25297;44.758;11.310;2023-02-01T00:16:28;8.40;77.50
39601;DHT22;25297;44.758;11.310;2023-02-01T00:19:14;8.40;77.50
39601;DHT22;25297;44.758;11.310;2023-02-01T00:21:41;8.40;77.60
39601;DHT22;25297;44.758;11.310;2023-02-01T00:24:06;8.30;77.60
39601;DHT22;25297;44.758;11.310;2023-02-01T00:26:37;8.30;77.20
39601;DHT22;25297;44.758;11.310;2023-02-01T00:29:05;8.30;76.80
39601;DHT22;25297;44.758;11.310;2023-02-01T00:31:31;8.20;77.20
39601;DHT22;25297;44.758;11.310;2023-02-01T00:33:57;8.10;76.10
39601;DHT22;25297;44.758;11.310;2023-02-01T00:36:22;8.00;76.20
39601;DHT22;25297;44.758;11.310;2023-02-01T00:38:48;7.90;76.10
39601;DHT22;25297;44.758;11.310;2023-02-01T00:41:16;7.80;76.40
39601;DHT22;25297;44.758;11.310;2023-02-01T00:43:43;7.80;76.80
39601;DHT22;25297;44.758;11.310;2023-02-01T00:46:10;7.70;77.00
39601;DHT22;25297;44.758;11.310;2023-02-01T00:48:36;7.70;77.20
39601;DHT22;25297;44.758;11.310;2023-02-01T00:51:08;7.80;77.20
39601;DHT22;25297;44.758;11.310;2023-02-01T00:53:34;7.80;77.10
39601;DHT22;25297;44.758;11.310;2023-02-01T00:55:59;7.70;77.00
39601;DHT22;25297;44.758;11.310;2023-02-01T00:58:26;7.70;76.90
39601;DHT22;25297;44.758;11.310;2023-02-01T01:03:30;7.70;76.70
39601;DHT22;25297;44.758;11.310;2023-02-01T01:05:59;7.70;76.60
39601;DHT22;25297;44.758;11.310;2023-02-01T01:08:25;7.60;76.60
39601;DHT22;25297;44.758;11.310;2023-02-01T01:10:50;7.50;76.80
39601;DHT22;25297;44.758;11.310;2023-02-01T01:13:16;7.50;76.90
39601;DHT22;25297;44.758;11.310;2023-02-01T01:15:42;7.50;77.00
39601;DHT22;25297;44.758;11.310;2023-02-01T01:18:08;7.50;76.90
39601;DHT22;25297;44.758;11.310;2023-02-01T01:20:35;7.40;76.90
39601;DHT22;25297;44.758;11.310;2023-02-01T01:23:02;7.40;76.70
39601;DHT22;25297;44.758;11.310;2023-02-01T01:25:28;7.40;76.90
39601;DHT22;25297;44.758;11.310;2023-02-01T01:27:54;7.30;76.30
39601;DHT22;25297;44.758;11.310;2023-02-01T01:30:19;7.30;76.50
39601;DHT22;25297;44.758;11.310;2023-02-01T01:32:45;7.20;76.70
39601;DHT22;25297;44.758;11.310;2023-02-01T01:35:11;7.20;76.70
39601;DHT22;25297;44.758;11.310;2023-02-01T01:37:37;7.20;76.80
39601;DHT22;25297;44.758;11.310;2023-02-01T01:40:04;7.10;77.10
39601;DHT22;25297;44.758;11.310;2023-02-01T01:42:30;7.10;77.20
39601;DHT22;25297;44.758;11.310;2023-02-01T01:45:08;7.00;77.30
39601;DHT22;25297;44.758;11.310;2023-02-01T01:47:47;7.00;77.10
39601;DHT22;25297;44.758;11.310;2023-02-01T01:50:16;7.00;77.10
39601;DHT22;25297;44.758;11.310;2023-02-01T01:52:46;7.00;76.90
39601;DHT22;25297;44.758;11.310;2023-02-01T01:55:14;6.90;76.60
39601;DHT22;25297;44.758;11.310;2023-02-01T01:57:45;6.90;77.10
39601;DHT22;25297;44.758;11.310;2023-02-01T02:00:14;6.90;77.60
39601;DHT22;25297;44.758;11.310;2023-02-01T02:02:43;6.90;77.80
39601;DHT22;25297;44.758;11.310;2023-02-01T02:05:10;6.90;78.00
39601;DHT22;25297;44.758;11.310;2023-02-01T02:07:40;6.90;78.20
39601;DHT22;25297;44.758;11.310;2023-02-01T02:10:09;6.90;78.10
39601;DHT22;25297;44.758;11.310;2023-02-01T02:12:42;6.90;77.70
39601;DHT22;25297;44.758;11.310;2023-02-01T02:15:11;6.90;77.80
39601;DHT22;25297;44.758;11.310;2023-02-01T02:17:58;6.90;78.30
39601;DHT22;25297;44.758;11.310;2023-02-01T02:38:57;7.00;79.00
39601;DHT22;25297;44.758;11.310;2023-02-01T02:41:28;7.00;78.90
39601;DHT22;25297;44.758;11.310;2023-02-01T02:44:35;6.90;78.90
39601;DHT22;25297;44.758;11.310;2023-02-01T02:47:57;6.90;79.30
39601;DHT22;25297;44.758;11.310;2023-02-01T02:50:49;6.90;79.60
39601;DHT22;25297;44.758;11.310;2023-02-01T02:53:43;6.90;79.40
39601;DHT22;25297;44.758;11.310;2023-02-01T02:56:31;6.90;79.10
39601;DHT22;25297;44.758;11.310;2023-02-01T02:59:20;6.90;79.30
39601;DHT22;25297;44.758;11.310;2023-02-01T03:02:06;6.90;79.20
39601;DHT22;25297;44.758;11.310;2023-02-01T03:04:54;6.90;78.70
39601;DHT22;25297;44.758;11.310;2023-02-01T03:15:55;6.70;79.10
39601;DHT22;25297;44.758;11.310;2023-02-01T03:21:12;6.60;78.70
39601;DHT22;25297;44.758;11.310;2023-02-01T03:23:42;6.60;79.40
39601;DHT22;25297;44.758;11.310;2023-02-01T03:26:11;6.60;78.90
39601;DHT22;25297;44.758;11.310;2023-02-01T03:28:43;6.60;78.40
39601;DHT22;25297;44.758;11.310;2023-02-01T03:31:11;6.60;78.10
39601;DHT22;25297;44.758;11.310;2023-02-01T03:33:38;6.60;78.10
39601;DHT22;25297;44.758;11.310;2023-02-01T03:41:46;6.50;78.40
39601;DHT22;25297;44.758;11.310;2023-02-01T03:44:24;6.50;78.40
39601;DHT22;25297;44.758;11.310;2023-02-01T03:46:59;6.50;78.40
39601;DHT22;25297;44.758;11.310;2023-02-01T03:49:39;6.60;78.20
39601;DHT22;25297;44.758;11.310;2023-02-01T03:52:15;6.60;78.00
39601;DHT22;25297;44.758;11.310;2023-02-01T03:54:42;6.60;77.90
39601;DHT22;25297;44.758;11.310;2023-02-01T03:57:11;6.60;77.80
39601;DHT22;25297;44.758;11.310;2023-02-01T03:59:42;6.60;78.40
39601;DHT22;25297;44.758;11.310;2023-02-01T04:02:09;6.60;78.80
39601;DHT22;25297;44.758;11.310;2023-02-01T04:04:35;6.60;79.00
39601;DHT22;25297;44.758;11.310;2023-02-01T04:07:01;6.60;79.10
39601;DHT22;25297;44.758;11.310;2023-02-01T04:09:26;6.60;78.40
39601;DHT22;25297;44.758;11.310;2023-02-01T04:11:52;6.60;77.90
39601;DHT22;25297;44.758;11.310;2023-02-01T04:14:18;6.60;77.80
39601;DHT22;25297;44.758;11.310;2023-02-01T04:16:43;6.60;77.90
39601;DHT22;25297;44.758;11.310;2023-02-01T04:19:09;6.50;78.00
39601;DHT22;25297;44.758;11.310;2023-02-01T04:21:34;6.50;78.40
39601;DHT22;25297;44.758;11.310;2023-02-01T04:24:00;6.50;78.50
39601;DHT22;25297;44.758;11.310;2023-02-01T04:26:26;6.50;78.90
39601;DHT22;25297;44.758;11.310;2023-02-01T04:28:51;6.60;79.00
39601;DHT22;25297;44.758;11.310;2023-02-01T04:31:18;6.60;78.70
39601;DHT22;25297;44.758;11.310;2023-02-01T04:33:55;6.60;78.40
39601;DHT22;25297;44.758;11.310;2023-02-01T04:36:23;6.60;78.50
39601;DHT22;25297;44.758;11.310;2023-02-01T04:38:52;6.60;78.90
39601;DHT22;25297;44.758;11.310;2023-02-01T04:41:18;6.60;78.90
39601;DHT22;25297;44.758;11.310;2023-02-01T04:43:46;6.60;78.80
39601;DHT22;25297;44.758;11.310;2023-02-01T04:46:11;6.60;78.60
39601;DHT22;25297;44.758;11.310;2023-02-01T04:48:37;6.60;78.20
39601;DHT22;25297;44.758;11.310;2023-02-01T04:51:03;6.60;77.90
39601;DHT22;25297;44.758;11.310;2023-02-01T04:53:29;6.60;78.00
39601;DHT22;25297;44.758;11.310;2023-02-01T04:55:55;6.60;78.10
39601;DHT22;25297;44.758;11.310;2023-02-01T04:58:21;6.60;78.20
39601;DHT22;25297;44.758;11.310;2023-02-01T05:00:47;6.60;78.00
39601;DHT22;25297;44.758;11.310;2023-02-01T05:03:13;6.60;78.00
39601;DHT22;25297;44.758;11.310;2023-02-01T05:05:39;6.70;78.00
39601;DHT22;25297;44.758;11.310;2023-02-01T05:08:05;6.60;78.00
39601;DHT22;25297;44.758;11.310;2023-02-01T05:10:30;6.60;78.10
39601;DHT22;25297;44.758;11.310;2023-02-01T05:12:56;6.50;78.10
39601;DHT22;25297;44.758;11.310;2023-02-01T05:15:40;6.50;78.20
39601;DHT22;25297;44.758;11.310;2023-02-01T05:18:06;6.50;78.10
39601;DHT22;25297;44.758;11.310;2023-02-01T05:20:32;6.40;78.10
39601;DHT22;25297;44.758;11.310;2023-02-01T05:22:57;6.40;78.30
39601;DHT22;25297;44.758;11.310;2023-02-01T05:25:23;6.40;78.40
39601;DHT22;25297;44.758;11.310;2023-02-01T05:27:48;6.40;78.30
39601;DHT22;25297;44.758;11.310;2023-02-01T05:30:14;6.40;78.30
39601;DHT22;25297;44.758;11.310;2023-02-01T05:32:40;6.40;78.30
39601;DHT22;25297;44.758;11.310;2023-02-01T05:35:06;6.40;78.20
39601;DHT22;25297;44.758;11.310;2023-02-01T05:37:32;6.30;78.20
39601;DHT22;25297;44.758;11.310;2023-02-01T05:39:57;6.30;78.10
39601;DHT22;25297;44.758;11.310;2023-02-01T05:42:23;6.30;78.00
39601;DHT22;25297;44.758;11.310;2023-02-01T05:44:49;6.30;77.80
39601;DHT22;25297;44.758;11.310;2023-02-01T05:47:14;6.30;77.90
39601;DHT22;25297;44.758;11.310;2023-02-01T05:49:40;6.30;77.70
39601;DHT22;25297;44.758;11.310;2023-02-01T05:52:05;6.30;77.70
39601;DHT22;25297;44.758;11.310;2023-02-01T05:54:31;6.30;77.70
39601;DHT22;25297;44.758;11.310;2023-02-01T05:56:57;6.20;77.80
39601;DHT22;25297;44.758;11.310;2023-02-01T05:59:22;6.20;77.60
39601;DHT22;25297;44.758;11.310;2023-02-01T06:01:48;6.20;77.80
39601;DHT22;25297;44.758;11.310;2023-02-01T06:04:14;6.20;77.80
39601;DHT22;25297;44.758;11.310;2023-02-01T06:06:40;6.10;77.90
39601;DHT22;25297;44.758;11.310;2023-02-01T06:09:05;6.00;77.90
39601;DHT22;25297;44.758;11.310;2023-02-01T06:11:31;6.00;78.20
39601;DHT22;25297;44.758;11.310;2023-02-01T06:13:57;5.90;78.20
39601;DHT22;25297;44.758;11.310;2023-02-01T06:16:23;5.90;78.20
39601;DHT22;25297;44.758;11.310;2023-02-01T06:18:48;5.90;78.20
39601;DHT22;25297;44.758;11.310;2023-02-01T06:21:14;5.90;78.40
39601;DHT22;25297;44.758;11.310;2023-02-01T06:23:52;5.90;78.50
39601;DHT22;25297;44.758;11.310;2023-02-01T06:26:18;6.00;78.40
39601;DHT22;25297;44.758;11.310;2023-02-01T06:28:44;6.00;78.10
39601;DHT22;25297;44.758;11.310;2023-02-01T06:31:10;6.00;77.90
39601;DHT22;25297;44.758;11.310;2023-02-01T06:33:36;6.00;77.90
39601;DHT22;25297;44.758;11.310;2023-02-01T06:36:05;6.00;77.80
39601;DHT22;25297;44.758;11.310;2023-02-01T06:38:31;6.00;78.00
39601;DHT22;25297;44.758;11.310;2023-02-01T06:40:57;6.00;78.10
39601;DHT22;25297;44.758;11.310;2023-02-01T06:43:25;6.00;78.20
39601;DHT22;25297;44.758;11.310;2023-02-01T06:45:51;6.00;78.20
39601;DHT22;25297;44.758;11.310;2023-02-01T06:48:18;6.00;78.10
39601;DHT22;25297;44.758;11.310;2023-02-01T06:50:44;6.00;78.00
39601;DHT22;25297;44.758;11.310;2023-02-01T06:53:10;6.00;77.90
39601;DHT22;25297;44.758;11.310;2023-02-01T06:55:36;5.90;77.80
39601;DHT22;25297;44.758;11.310;2023-02-01T06:58:01;5.90;77.80
39601;DHT22;25297;44.758;11.310;2023-02-01T07:00:28;5.90;77.70
39601;DHT22;25297;44.758;11.310;2023-02-01T07:02:54;5.90;77.60
39601;DHT22;25297;44.758;11.310;2023-02-01T07:05:20;5.90;77.50
39601;DHT22;25297;44.758;11.310;2023-02-01T07:07:46;5.90;77.60
39601;DHT22;25297;44.758;11.310;2023-02-01T07:10:12;5.90;77.60
39601;DHT22;25297;44.758;11.310;2023-02-01T07:12:37;5.90;77.70
39601;DHT22;25297;44.758;11.310;2023-02-01T07:15:05;5.90;77.80
39601;DHT22;25297;44.758;11.310;2023-02-01T07:17:30;5.90;78.20
39601;DHT22;25297;44.758;11.310;2023-02-01T07:19:56;5.90;78.30
39601;DHT22;25297;44.758;11.310;2023-02-01T07:22:24;6.00;78.30
39601;DHT22;25297;44.758;11.310;2023-02-01T07:24:49;6.00;78.20
39601;DHT22;25297;44.758;11.310;2023-02-01T07:27:15;6.00;78.40
39601;DHT22;25297;44.758;11.310;2023-02-01T07:29:40;6.00;78.50
39601;DHT22;25297;44.758;11.310;2023-02-01T07:32:06;6.10;78.50
39601;DHT22;25297;44.758;11.310;2023-02-01T07:34:32;6.10;78.10
39601;DHT22;25297;44.758;11.310;2023-02-01T07:36:58;6.10;78.10
39601;DHT22;25297;44.758;11.310;2023-02-01T07:39:23;6.10;78.30
39601;DHT22;25297;44.758;11.310;2023-02-01T07:41:49;6.10;78.10
39601;DHT22;25297;44.758;11.310;2023-02-01T07:44:15;6.20;78.20
39601;DHT22;25297;44.758;11.310;2023-02-01T07:46:42;6.20;78.10
39601;DHT22;25297;44.758;11.310;2023-02-01T07:49:08;6.20;78.10
39601;DHT22;25297;44.758;11.310;2023-02-01T07:51:34;6.20;78.10
39601;DHT22;25297;44.758;11.310;2023-02-01T07:54:00;6.20;77.90
39601;DHT22;25297;44.758;11.310;2023-02-01T07:56:25;6.20;77.90
39601;DHT22;25297;44.758;11.310;2023-02-01T07:58:53;6.20;78.10
39601;DHT22;25297;44.758;11.310;2023-02-01T08:01:22;6.20;78.40
39601;DHT22;25297;44.758;11.310;2023-02-01T08:03:53;6.20;78.80
39601;DHT22;25297;44.758;11.310;2023-02-01T08:06:19;6.20;79.10
39601;DHT22;25297;44.758;11.310;2023-02-01T08:08:46;6.30;78.90
39601;DHT22;25297;44.758;11.310;2023-02-01T08:11:12;6.30;78.90
39601;DHT22;25297;44.758;11.310;2023-02-01T08:13:38;6.40;79.30
39601;DHT22;25297;44.758;11.310;2023-02-01T08:16:06;6.40;79.40
39601;DHT22;25297;44.758;11.310;2023-02-01T08:18:32;6.40;79.80
39601;DHT22;25297;44.758;11.310;2023-02-01T08:21:10;6.50;79.90
39601;DHT22;25297;44.758;11.310;2023-02-01T08:23:37;6.50;80.00
39601;DHT22;25297;44.758;11.310;2023-02-01T08:28:41;6.60;80.20
39601;DHT22;25297;44.758;11.310;2023-02-01T08:31:10;6.60;80.30
39601;DHT22;25297;44.758;11.310;2023-02-01T08:33:36;6.70;80.60
39601;DHT22;25297;44.758;11.310;2023-02-01T08:36:04;6.70;80.60
39601;DHT22;25297;44.758;11.310;2023-02-01T08:38:30;6.70;80.60
39601;DHT22;25297;44.758;11.310;2023-02-01T08:40:56;6.80;80.70
39601;DHT22;25297;44.758;11.310;2023-02-01T08:43:22;6.80;80.30
39601;DHT22;25297;44.758;11.310;2023-02-01T08:45:49;6.80;80.00
39601;DHT22;25297;44.758;11.310;2023-02-01T08:48:15;6.80;79.70
39601;DHT22;25297;44.758;11.310;2023-02-01T08:50:40;6.90;80.20
39601;DHT22;25297;44.758;11.310;2023-02-01T08:53:06;7.00;80.40
39601;DHT22;25297;44.758;11.310;2023-02-01T08:55:32;7.10;80.30
39601;DHT22;25297;44.758;11.310;2023-02-01T08:57:57;7.20;80.30
39601;DHT22;25297;44.758;11.310;2023-02-01T09:00:23;7.20;80.00
39601;DHT22;25297;44.758;11.310;2023-02-01T09:02:49;7.30;79.70
39601;DHT22;25297;44.758;11.310;2023-02-01T09:05:14;7.30;79.60
39601;DHT22;25297;44.758;11.310;2023-02-01T09:07:41;7.40;79.40
39601;DHT22;25297;44.758;11.310;2023-02-01T09:10:08;7.50;79.20
39601;DHT22;25297;44.758;11.310;2023-02-01T09:12:35;7.50;79.90
39601;DHT22;25297;44.758;11.310;2023-02-01T09:15:01;7.60;80.40
39601;DHT22;25297;44.758;11.310;2023-02-01T09:17:27;7.70;80.10
39601;DHT22;25297;44.758;11.310;2023-02-01T09:19:53;7.70;80.00
39601;DHT22;25297;44.758;11.310;2023-02-01T09:22:18;7.80;79.80
39601;DHT22;25297;44.758;11.310;2023-02-01T09:24:44;7.90;79.30
39601;DHT22;25297;44.758;11.310;2023-02-01T09:27:10;8.00;79.20
39601;DHT22;25297;44.758;11.310;2023-02-01T09:29:36;8.10;79.30
39601;DHT22;25297;44.758;11.310;2023-02-01T09:32:01;8.20;79.30
39601;DHT22;25297;44.758;11.310;2023-02-01T09:34:28;8.30;79.10
39601;DHT22;25297;44.758;11.310;2023-02-01T09:36:53;8.40;79.10
39601;DHT22;25297;44.758;11.310;2023-02-01T09:39:19;8.40;79.10
39601;DHT22;25297;44.758;11.310;2023-02-01T09:47:26;8.60;79.10
39601;DHT22;25297;44.758;11.310;2023-02-01T09:50:05;8.70;79.90
39601;DHT22;25297;44.758;11.310;2023-02-01T09:52:43;8.70;80.20
39601;DHT22;25297;44.758;11.310;2023-02-01T09:55:15;8.80;80.80
39601;DHT22;25297;44.758;11.310;2023-02-01T10:00:34;9.20;81.20
39601;DHT22;25297;44.758;11.310;2023-02-01T10:03:01;9.30;80.90
39601;DHT22;25297;44.758;11.310;2023-02-01T10:14:04;10.00;80.10
39601;DHT22;25297;44.758;11.310;2023-02-01T10:16:37;10.10;80.00
39601;DHT22;25297;44.758;11.310;2023-02-01T10:22:11;10.20;79.70
39601;DHT22;25297;44.758;11.310;2023-02-01T10:24:45;10.20;79.50
39601;DHT22;25297;44.758;11.310;2023-02-01T10:29:47;10.30;80.00
39601;DHT22;25297;44.758;11.310;2023-02-01T10:32:36;10.30;79.90
39601;DHT22;25297;44.758;11.310;2023-02-01T10:35:15;10.30;79.90
39601;DHT22;25297;44.758;11.310;2023-02-01T10:37:43;10.30;80.00
39601;DHT22;25297;44.758;11.310;2023-02-01T10:40:20;10.30;80.20
39601;DHT22;25297;44.758;11.310;2023-02-01T10:42:48;10.40;80.20
39601;DHT22;25297;44.758;11.310;2023-02-01T10:45:25;10.40;80.30
39601;DHT22;25297;44.758;11.310;2023-02-01T10:47:52;10.40;80.00
39601;DHT22;25297;44.758;11.310;2023-02-01T10:53:19;10.50;80.10
39601;DHT22;25297;44.758;11.310;2023-02-01T10:55:49;10.50;80.20
39601;DHT22;25297;44.758;11.310;2023-02-01T10:58:18;10.60;80.10
39601;DHT22;25297;44.758;11.310;2023-02-01T11:01:02;10.70;80.50
39601;DHT22;25297;44.758;11.310;2023-02-01T11:06:26;10.80;79.90
39601;DHT22;25297;44.758;11.310;2023-02-01T11:08:54;10.90;79.90
39601;DHT22;25297;44.758;11.310;2023-02-01T11:11:21;11.00;79.70
39601;DHT22;25297;44.758;11.310;2023-02-01T11:13:58;11.00;79.70
39601;DHT22;25297;44.758;11.310;2023-02-01T11:16:35;11.10;79.50
39601;DHT22;25297;44.758;11.310;2023-02-01T11:19:01;11.20;79.70
39601;DHT22;25297;44.758;11.310;2023-02-01T11:21:27;11.20;79.50
39601;DHT22;25297;44.758;11.310;2023-02-01T11:23:53;11.30;79.20
39601;DHT22;25297;44.758;11.310;2023-02-01T11:26:26;11.40;79.00
39601;DHT22;25297;44.758;11.310;2023-02-01T11:29:14;11.40;78.80
39601;DHT22;25297;44.758;11.310;2023-02-01T11:31:43;11.50;78.80
39601;DHT22;25297;44.758;11.310;2023-02-01T11:34:17;11.50;79.40
39601;DHT22;25297;44.758;11.310;2023-02-01T11:36:46;11.60;79.40
39601;DHT22;25297;44.758;11.310;2023-02-01T11:39:24;11.60;79.20
39601;DHT22;25297;44.758;11.310;2023-02-01T11:44:41;11.70;78.70
39601;DHT22;25297;44.758;11.310;2023-02-01T11:49:46;11.80;78.70
39601;DHT22;25297;44.758;11.310;2023-02-01T12:03:06;12.10;78.50
39601;DHT22;25297;44.758;11.310;2023-02-01T12:13:42;12.50;78.10
39601;DHT22;25297;44.758;11.310;2023-02-01T12:18:53;12.70;78.30
39601;DHT22;25297;44.758;11.310;2023-02-01T12:21:46;12.80;78.10
39601;DHT22;25297;44.758;11.310;2023-02-01T12:24:42;12.90;78.10
39601;DHT22;25297;44.758;11.310;2023-02-01T12:27:56;13.00;78.00
39601;DHT22;25297;44.758;11.310;2023-02-01T12:30:58;13.10;77.60
39601;DHT22;25297;44.758;11.310;2023-02-01T12:47:06;14.00;77.00
39601;DHT22;25297;44.758;11.310;2023-02-01T12:49:45;14.20;76.20
39601;DHT22;25297;44.758;11.310;2023-02-01T12:53:07;14.30;75.60
39601;DHT22;25297;44.758;11.310;2023-02-01T12:58:06;14.70;75.30
39601;DHT22;25297;44.758;11.310;2023-02-01T13:00:39;14.90;74.80
39601;DHT22;25297;44.758;11.310;2023-02-01T13:03:28;15.10;74.50
39601;DHT22;25297;44.758;11.310;2023-02-01T13:06:07;15.30;74.00
39601;DHT22;25297;44.758;11.310;2023-02-01T13:11:22;15.40;72.60
39601;DHT22;25297;44.758;11.310;2023-02-01T13:13:59;15.50;72.60
39601;DHT22;25297;44.758;11.310;2023-02-01T13:16:32;15.50;72.60
39601;DHT22;25297;44.758;11.310;2023-02-01T13:19:43;15.60;71.80
39601;DHT22;25297;44.758;11.310;2023-02-01T13:22:18;15.70;71.80
39601;DHT22;25297;44.758;11.310;2023-02-01T13:25:03;15.70;71.40
39601;DHT22;25297;44.758;11.310;2023-02-01T13:27:30;15.70;70.80
39601;DHT22;25297;44.758;11.310;2023-02-01T13:30:00;15.80;71.20
39601;DHT22;25297;44.758;11.310;2023-02-01T13:33:01;15.80;71.10
39601;DHT22;25297;44.758;11.310;2023-02-01T13:41:42;15.90;70.80
39601;DHT22;25297;44.758;11.310;2023-02-01T13:44:23;15.90;71.20
39601;DHT22;25297;44.758;11.310;2023-02-01T13:46:54;16.00;71.40
39601;DHT22;25297;44.758;11.310;2023-02-01T13:49:24;16.00;71.00
39601;DHT22;25297;44.758;11.310;2023-02-01T13:51:54;16.00;71.00
39601;DHT22;25297;44.758;11.310;2023-02-01T13:54:30;16.00;70.90
39601;DHT22;25297;44.758;11.310;2023-02-01T13:56:57;16.00;71.00
39601;DHT22;25297;44.758;11.310;2023-02-01T14:05:09;16.00;70.90
39601;DHT22;25297;44.758;11.310;2023-02-01T14:07:35;16.00;71.10
39601;DHT22;25297;44.758;11.310;2023-02-01T14:13:12;15.90;71.40
39601;DHT22;25297;44.758;11.310;2023-02-01T14:15:38;15.90;71.30
39601;DHT22;25297;44.758;11.310;2023-02-01T14:23:44;15.80;71.60
39601;DHT22;25297;44.758;11.310;2023-02-01T14:26:14;15.60;72.00
39601;DHT22;25297;44.758;11.310;2023-02-01T14:28:50;15.70;72.10
39601;DHT22;25297;44.758;11.310;2023-02-01T14:37:00;15.50;71.30
39601;DHT22;25297;44.758;11.310;2023-02-01T14:39:34;15.50;71.40
39601;DHT22;25297;44.758;11.310;2023-02-01T14:42:05;15.50;71.60
39601;DHT22;25297;44.758;11.310;2023-02-01T14:44:39;15.50;71.60
39601;DHT22;25297;44.758;11.310;2023-02-01T14:50:11;15.40;71.90
39601;DHT22;25297;44.758;11.310;2023-02-01T14:52:40;15.40;71.80
39601;DHT22;25297;44.758;11.310;2023-02-01T14:55:24;15.40;71.80
39601;DHT22;25297;44.758;11.310;2023-02-01T14:57:53;15.40;71.70
39601;DHT22;25297;44.758;11.310;2023-02-01T15:02:49;15.30;71.30
39601;DHT22;25297;44.758;11.310;2023-02-01T15:05:32;15.30;71.30
39601;DHT22;25297;44.758;11.310;2023-02-01T15:08:25;15.30;71.20
39601;DHT22;25297;44.758;11.310;2023-02-01T15:10:51;15.20;71.30
39601;DHT22;25297;44.758;11.310;2023-02-01T15:13:25;15.20;71.50
39601;DHT22;25297;44.758;11.310;2023-02-01T15:16:12;15.20;71.80
39601;DHT22;25297;44.758;11.310;2023-02-01T15:18:39;15.20;71.90
39601;DHT22;25297;44.758;11.310;2023-02-01T15:21:06;15.10;72.00
39601;DHT22;25297;44.758;11.310;2023-02-01T15:23:32;15.10;72.10
39601;DHT22;25297;44.758;11.310;2023-02-01T15:25:58;15.10;72.20
39601;DHT22;25297;44.758;11.310;2023-02-01T15:28:25;15.00;72.20
39601;DHT22;25297;44.758;11.310;2023-02-01T15:30:57;15.00;72.10
39601;DHT22;25297;44.758;11.310;2023-02-01T15:33:23;15.00;72.10
39601;DHT22;25297;44.758;11.310;2023-02-01T15:36:11;14.90;72.00
39601;DHT22;25297;44.758;11.310;2023-02-01T15:38:43;15.00;72.40
39601;DHT22;25297;44.758;11.310;2023-02-01T15:41:10;14.90;72.50
39601;DHT22;25297;44.758;11.310;2023-02-01T15:46:11;14.80;73.00
39601;DHT22;25297;44.758;11.310;2023-02-01T15:48:46;14.80;73.40
39601;DHT22;25297;44.758;11.310;2023-02-01T15:51:19;14.70;73.20
39601;DHT22;25297;44.758;11.310;2023-02-01T15:56:34;14.60;73.60
39601;DHT22;25297;44.758;11.310;2023-02-01T15:59:04;14.60;73.50
39601;DHT22;25297;44.758;11.310;2023-02-01T16:01:36;14.50;73.40
39601;DHT22;25297;44.758;11.310;2023-02-01T16:06:52;14.40;73.40
39601;DHT22;25297;44.758;11.310;2023-02-01T16:09:21;14.40;73.40
39601;DHT22;25297;44.758;11.310;2023-02-01T16:14:12;14.30;73.50
39601;DHT22;25297;44.758;11.310;2023-02-01T16:16:38;14.20;73.60
39601;DHT22;25297;44.758;11.310;2023-02-01T16:19:03;14.10;73.70
39601;DHT22;25297;44.758;11.310;2023-02-01T16:21:29;14.10;73.80
39601;DHT22;25297;44.758;11.310;2023-02-01T16:23:55;14.00;73.90
39601;DHT22;25297;44.758;11.310;2023-02-01T16:26:20;14.00;74.20
39601;DHT22;25297;44.758;11.310;2023-02-01T16:28:47;13.90;74.10
39601;DHT22;25297;44.758;11.310;2023-02-01T16:31:15;13.80;74.20
39601;DHT22;25297;44.758;11.310;2023-02-01T16:33:51;13.70;74.40
39601;DHT22;25297;44.758;11.310;2023-02-01T16:36:17;13.70;74.60
39601;DHT22;25297;44.758;11.310;2023-02-01T16:38:44;13.60;74.60
39601;DHT22;25297;44.758;11.310;2023-02-01T16:41:17;13.50;74.70
39601;DHT22;25297;44.758;11.310;2023-02-01T16:43:43;13.40;74.90
39601;DHT22;25297;44.758;11.310;2023-02-01T16:46:16;13.30;74.90
39601;DHT22;25297;44.758;11.310;2023-02-01T16:48:48;13.20;74.70
39601;DHT22;25297;44.758;11.310;2023-02-01T16:51:16;13.10;75.00
39601;DHT22;25297;44.758;11.310;2023-02-01T16:53:43;13.00;75.10
39601;DHT22;25297;44.758;11.310;2023-02-01T16:56:23;13.00;75.40
39601;DHT22;25297;44.758;11.310;2023-02-01T16:58:49;12.90;75.80
39601;DHT22;25297;44.758;11.310;2023-02-01T17:01:18;12.80;76.00
39601;DHT22;25297;44.758;11.310;2023-02-01T17:03:44;12.80;75.50
39601;DHT22;25297;44.758;11.310;2023-02-01T17:06:14;12.70;75.40
39601;DHT22;25297;44.758;11.310;2023-02-01T17:08:53;12.60;76.00
39601;DHT22;25297;44.758;11.310;2023-02-01T17:11:20;12.60;76.20
39601;DHT22;25297;44.758;11.310;2023-02-01T17:13:46;12.50;76.10
39601;DHT22;25297;44.758;11.310;2023-02-01T17:16:20;12.40;76.60
39601;DHT22;25297;44.758;11.310;2023-02-01T17:19:01;12.30;76.70
39601;DHT22;25297;44.758;11.310;2023-02-01T17:21:29;12.30;76.90
39601;DHT22;25297;44.758;11.310;2023-02-01T17:23:55;12.20;77.10
39601;DHT22;25297;44.758;11.310;2023-02-01T17:26:24;12.20;77.30
39601;DHT22;25297;44.758;11.310;2023-02-01T17:28:50;12.10;77.50
39601;DHT22;25297;44.758;11.310;2023-02-01T17:31:16;12.10;77.50
39601;DHT22;25297;44.758;11.310;2023-02-01T17:33:42;12.00;76.60
39601;DHT22;25297;44.758;11.310;2023-02-01T17:36:14;12.00;76.60
39601;DHT22;25297;44.758;11.310;2023-02-01T17:38:40;11.90;76.90
39601;DHT22;25297;44.758;11.310;2023-02-01T17:41:06;11.80;76.80
39601;DHT22;25297;44.758;11.310;2023-02-01T17:43:31;11.80;76.90
39601;DHT22;25297;44.758;11.310;2023-02-01T17:48:28;11.60;77.30
39601;DHT22;25297;44.758;11.310;2023-02-01T17:50:54;11.60;78.00
39601;DHT22;25297;44.758;11.310;2023-02-01T17:53:27;11.60;78.20
39601;DHT22;25297;44.758;11.310;2023-02-01T17:55:54;11.50;77.70
39601;DHT22;25297;44.758;11.310;2023-02-01T17:58:22;11.50;77.70
39601;DHT22;25297;44.758;11.310;2023-02-01T18:00:49;11.50;77.80
39601;DHT22;25297;44.758;11.310;2023-02-01T18:05:51;11.30;77.90
39601;DHT22;25297;44.758;11.310;2023-02-01T18:08:22;11.30;78.80
39601;DHT22;25297;44.758;11.310;2023-02-01T18:10:55;11.30;79.00
39601;DHT22;25297;44.758;11.310;2023-02-01T18:13:24;11.20;79.30
39601;DHT22;25297;44.758;11.310;2023-02-01T18:15:50;11.20;79.30
39601;DHT22;25297;44.758;11.310;2023-02-01T18:18:15;11.20;79.50
39601;DHT22;25297;44.758;11.310;2023-02-01T18:20:43;11.20;79.60
39601;DHT22;25297;44.758;11.310;2023-02-01T18:23:29;11.20;79.60
39601;DHT22;25297;44.758;11.310;2023-02-01T18:25:55;11.10;79.80